Language: 


Des rapports , des résumés tant et plus, au choix de chacun....


Données Historiques de Météogheer
Journalier Rapport pour Janvier 16, 2017 Unitée:  Les deux    Impériale   Métrique
Suivant Jour »
Journalier Hebdomadaire Mensuel Annuel Sur mesure
  Max: Min: Moyenne:
Température: 39 °F /  3.9 °C 31.1 °F /  -0.5 °C 34.7 °F /  1.5 °C
Point de rosée: 38.3 °F /  3.5 °C 30.6 °F /  -0.8 °C 34.2 °F /  1.2 °C
Humidité: 98% 0% 98%
Vent: 4.3mph /  6.9km/h - 0.9mph /  1.5km/h
Rafales: 6.9mph /  11.1km/h - -
Vent- - SE
Pression: 30.5 in /  1032.1 hPa 0 in /  0.0 hPa -
Pluie: 0.01 in /  0.3 mm    
Historical Graphs
 
 
Données tabulaires pour Janvier 16, 2017
Heure Température Point de rosée Pression Vent Vent Rafales Humidité Pluie Taux (Horaire) Conditions
00:03 34.2 °F /  1.2 °C 33.6 °F /  0.9 °C 30.2in /  1021.9hPa Calm     98% 0in /  0.0mm
00:08 34 °F /  1.1 °C 33.4 °F /  0.8 °C 30.2in /  1022.9hPa Calm     98% 0in /  0.0mm
00:13 34 °F /  1.1 °C 33.4 °F /  0.8 °C 30.2in /  1022.9hPa SW 1.3mph /  2.1km/h 2.2mph /  3.5km/h 98% 0in /  0.0mm
00:18 34 °F /  1.1 °C 33.4 °F /  0.8 °C 30.2in /  1022.9hPa Calm   2.2mph /  3.5km/h 98% 0in /  0.0mm
00:23 34 °F /  1.1 °C 33.4 °F /  0.8 °C 30.2in /  1022.9hPa Calm   1.1mph /  1.8km/h 98% 0in /  0.0mm
00:28 34 °F /  1.1 °C 33.4 °F /  0.8 °C 30.2in /  1022.9hPa Calm     98% 0in /  0.0mm
00:33 34 °F /  1.1 °C 33.4 °F /  0.8 °C 30.2in /  1022.9hPa Calm     98% 0in /  0.0mm
00:38 34 °F /  1.1 °C 33.4 °F /  0.8 °C 30.2in /  1022.9hPa SW 1.1mph /  1.8km/h 1.1mph /  1.8km/h 98% 0in /  0.0mm
00:43 34 °F /  1.1 °C 33.4 °F /  0.8 °C 30.2in /  1022.9hPa Calm   1.1mph /  1.8km/h 98% 0in /  0.0mm
00:48 33.8 °F /  1.0 °C 33.3 °F /  0.7 °C 30.2in /  1022.9hPa Calm   1.1mph /  1.8km/h 98% 0in /  0.0mm
00:53 33.8 °F /  1.0 °C 33.3 °F /  0.7 °C 30.2in /  1022.9hPa Calm     98% 0in /  0.0mm
00:58 33.8 °F /  1.0 °C 33.3 °F /  0.7 °C 30.2in /  1022.9hPa Calm     98% 0in /  0.0mm
01:03 33.8 °F /  1.0 °C 33.3 °F /  0.7 °C 30.2in /  1022.9hPa Calm     98% 0in /  0.0mm
01:08 33.8 °F /  1.0 °C 33.3 °F /  0.7 °C 30.2in /  1022.9hPa Calm     98% 0in /  0.0mm
01:13 33.8 °F /  1.0 °C 33.3 °F /  0.7 °C 30.2in /  1022.9hPa Calm   1.1mph /  1.8km/h 98% 0in /  0.0mm
01:18 33.8 °F /  1.0 °C 33.3 °F /  0.7 °C 30.2in /  1022.9hPa Calm   1.1mph /  1.8km/h 98% 0in /  0.0mm
01:20 33.6 °F /  0.9 °C 33.1 °F /  0.6 °C 30.2in /  1022.9hPa Calm   1.1mph /  1.8km/h 98% 0in /  0.0mm
01:25 33.6 °F /  0.9 °C 33.1 °F /  0.6 °C 30.2in /  1022.9hPa Calm     98% 0in /  0.0mm
01:30 33.6 °F /  0.9 °C 33.1 °F /  0.6 °C 30.2in /  1022.9hPa Calm     98% 0in /  0.0mm
01:35 33.4 °F /  0.8 °C 32.9 °F /  0.5 °C 30.2in /  1022.9hPa Calm     98% 0in /  0.0mm
01:40 33.4 °F /  0.8 °C 32.9 °F /  0.5 °C 30.2in /  1021.9hPa Calm     98% 0in /  0.0mm
01:45 33.4 °F /  0.8 °C 32.9 °F /  0.5 °C 30.2in /  1021.9hPa Calm     98% 0in /  0.0mm
01:50 33.4 °F /  0.8 °C 32.9 °F /  0.5 °C 30.2in /  1021.9hPa Calm     98% 0in /  0.0mm
01:55 33.4 °F /  0.8 °C 32.9 °F /  0.5 °C 30.2in /  1022.9hPa Calm     98% 0in /  0.0mm
02:02 32 °F /  0.0 °C 32.7 °F /  0.4 °C 0in /  0.0hPa Calm     0% 0in /  0.0mm
02:07 33.3 °F /  0.7 °C 32.7 °F /  0.4 °C 30.2in /  1021.9hPa Calm     98% 0in /  0.0mm
02:12 33.1 °F /  0.6 °C 32.5 °F /  0.3 °C 30.2in /  1021.9hPa Calm   2.7mph /  4.3km/h 98% 0in /  0.0mm
02:17 33.1 °F /  0.6 °C 32.5 °F /  0.3 °C 30.2in /  1021.9hPa Calm   2.7mph /  4.3km/h 98% 0in /  0.0mm
02:22 33.1 °F /  0.6 °C 32.5 °F /  0.3 °C 30.2in /  1021.9hPa NE 2.2mph /  3.5km/h 3.1mph /  5.0km/h 98% 0in /  0.0mm
02:27 33.1 °F /  0.6 °C 32.5 °F /  0.3 °C 30.2in /  1021.9hPa NNE 2mph /  3.2km/h 3.6mph /  5.8km/h 98% 0in /  0.0mm
02:32 33.1 °F /  0.6 °C 32.5 °F /  0.3 °C 30.2in /  1021.9hPa Calm   3.6mph /  5.8km/h 98% 0in /  0.0mm
02:37 33.1 °F /  0.6 °C 32.5 °F /  0.3 °C 30.2in /  1022.9hPa Calm   2.9mph /  4.7km/h 98% 0in /  0.0mm
02:42 32.9 °F /  0.5 °C 32.4 °F /  0.2 °C 30.2in /  1022.9hPa Calm   2.9mph /  4.7km/h 98% 0in /  0.0mm
02:47 32.9 °F /  0.5 °C 32.4 °F /  0.2 °C 30.2in /  1022.9hPa Calm   3.1mph /  5.0km/h 98% 0in /  0.0mm
02:52 33.1 °F /  0.6 °C 32.5 °F /  0.3 °C 30.2in /  1023.9hPa NE 1.3mph /  2.1km/h 3.1mph /  5.0km/h 98% 0in /  0.0mm
02:57 33.1 °F /  0.6 °C 32.5 °F /  0.3 °C 30.2in /  1023.9hPa Calm   2.7mph /  4.3km/h 98% 0in /  0.0mm
03:02 33.1 °F /  0.6 °C 32.5 °F /  0.3 °C 30.2in /  1023.9hPa Calm   1.6mph /  2.6km/h 98% 0in /  0.0mm
03:07 33.1 °F /  0.6 °C 32.5 °F /  0.3 °C 30.2in /  1022.9hPa Calm   1.1mph /  1.8km/h 98% 0in /  0.0mm
03:12 33.1 °F /  0.6 °C 32.5 °F /  0.3 °C 30.2in /  1022.9hPa Calm     98% 0in /  0.0mm
03:17 33.1 °F /  0.6 °C 32.5 °F /  0.3 °C 30.2in /  1022.9hPa Calm   0.9mph /  1.4km/h 98% 0in /  0.0mm
03:22 33.1 °F /  0.6 °C 32.5 °F /  0.3 °C 30.2in /  1023.9hPa Calm   0.9mph /  1.4km/h 98% 0in /  0.0mm
03:27 33.3 °F /  0.7 °C 32.7 °F /  0.4 °C 30.2in /  1023.9hPa Calm   1.1mph /  1.8km/h 98% 0in /  0.0mm
03:32 33.3 °F /  0.7 °C 32.7 °F /  0.4 °C 30.2in /  1023.9hPa Calm   3.1mph /  5.0km/h 98% 0in /  0.0mm
03:37 33.3 °F /  0.7 °C 32.7 °F /  0.4 °C 30.2in /  1022.9hPa NE 2.5mph /  4.0km/h 3.1mph /  5.0km/h 98% 0in /  0.0mm
03:42 33.4 °F /  0.8 °C 32.9 °F /  0.5 °C 30.2in /  1022.9hPa Calm   3.4mph /  5.5km/h 98% 0in /  0.0mm
03:47 33.6 °F /  0.9 °C 33.1 °F /  0.6 °C 30.2in /  1022.9hPa Calm   3.4mph /  5.5km/h 98% 0in /  0.0mm
03:52 33.6 °F /  0.9 °C 33.1 °F /  0.6 °C 30.2in /  1022.9hPa NE 3.4mph /  5.5km/h 3.4mph /  5.5km/h 98% 0.01in /  0.3mm
03:57 33.6 °F /  0.9 °C 33.1 °F /  0.6 °C 30.2in /  1022.9hPa Calm   3.4mph /  5.5km/h 98% 0.01in /  0.3mm
04:02 33.8 °F /  1.0 °C 33.3 °F /  0.7 °C 30.2in /  1022.9hPa Calm   2.9mph /  4.7km/h 98% 0.01in /  0.3mm
04:07 33.8 °F /  1.0 °C 33.3 °F /  0.7 °C 30.2in /  1022.9hPa Calm     98% 0.01in /  0.3mm
04:12 33.8 °F /  1.0 °C 33.3 °F /  0.7 °C 30.2in /  1022.9hPa Calm     98% 0.01in /  0.3mm
04:17 33.8 °F /  1.0 °C 33.3 °F /  0.7 °C 30.2in /  1022.9hPa Calm   2.7mph /  4.3km/h 98% 0.01in /  0.3mm
04:22 33.8 °F /  1.0 °C 33.3 °F /  0.7 °C 30.2in /  1023.9hPa Calm   2.7mph /  4.3km/h 98% 0.01in /  0.3mm
04:27 33.8 °F /  1.0 °C 33.3 °F /  0.7 °C 30.2in /  1023.9hPa Calm     98% 0.01in /  0.3mm
04:32 33.8 °F /  1.0 °C 33.3 °F /  0.7 °C 30.2in /  1023.9hPa Calm     98% 0.01in /  0.3mm
04:37 33.8 °F /  1.0 °C 33.3 °F /  0.7 °C 30.2in /  1023.9hPa Calm     98% 0.01in /  0.3mm
04:42 33.8 °F /  1.0 °C 33.3 °F /  0.7 °C 30.2in /  1023.9hPa Calm     98% 0.01in /  0.3mm
04:47 33.8 °F /  1.0 °C 33.3 °F /  0.7 °C 30.2in /  1023.9hPa Calm     98% 0.01in /  0.3mm
04:52 33.8 °F /  1.0 °C 33.3 °F /  0.7 °C 30.2in /  1023.9hPa Calm     98% 0in /  0.0mm
04:57 33.8 °F /  1.0 °C 33.3 °F /  0.7 °C 30.2in /  1023.9hPa Calm     98% 0in /  0.0mm
05:02 33.8 °F /  1.0 °C 33.3 °F /  0.7 °C 30.2in /  1023.9hPa Calm     98% 0in /  0.0mm
05:07 34 °F /  1.1 °C 33.4 °F /  0.8 °C 30.2in /  1023.9hPa North 1.6mph /  2.6km/h 2.9mph /  4.7km/h 98% 0in /  0.0mm
05:12 34 °F /  1.1 °C 33.4 °F /  0.8 °C 30.2in /  1023.9hPa Calm   2.9mph /  4.7km/h 98% 0in /  0.0mm
05:17 34 °F /  1.1 °C 33.4 °F /  0.8 °C 30.2in /  1023.9hPa North 3.4mph /  5.5km/h 3.8mph /  6.1km/h 98% 0in /  0.0mm
05:22 34 °F /  1.1 °C 33.4 °F /  0.8 °C 30.2in /  1023.9hPa North 4mph /  6.4km/h 4mph /  6.4km/h 98% 0in /  0.0mm
05:27 34 °F /  1.1 °C 33.4 °F /  0.8 °C 30.2in /  1023.9hPa North 3.4mph /  5.5km/h 4mph /  6.4km/h 98% 0in /  0.0mm
05:32 34 °F /  1.1 °C 33.4 °F /  0.8 °C 30.2in /  1023.9hPa NNE 1.6mph /  2.6km/h 4.7mph /  7.6km/h 98% 0in /  0.0mm
05:37 34 °F /  1.1 °C 33.4 °F /  0.8 °C 30.3in /  1024.9hPa NNE 2.5mph /  4.0km/h 4.7mph /  7.6km/h 98% 0in /  0.0mm
05:42 33.8 °F /  1.0 °C 33.3 °F /  0.7 °C 30.3in /  1024.9hPa Calm   5.6mph /  9.0km/h 98% 0in /  0.0mm
05:47 33.8 °F /  1.0 °C 33.3 °F /  0.7 °C 30.3in /  1024.9hPa North 1.6mph /  2.6km/h 5.6mph /  9.0km/h 98% 0in /  0.0mm
05:53 33.8 °F /  1.0 °C 33.3 °F /  0.7 °C 30.2in /  1023.9hPa Calm   3.6mph /  5.8km/h 98% 0in /  0.0mm
05:58 33.8 °F /  1.0 °C 33.3 °F /  0.7 °C 30.2in /  1023.9hPa Calm   2.5mph /  4.0km/h 98% 0in /  0.0mm
06:03 33.8 °F /  1.0 °C 33.3 °F /  0.7 °C 30.2in /  1023.9hPa Calm   3.1mph /  5.0km/h 98% 0in /  0.0mm
06:08 33.8 °F /  1.0 °C 33.3 °F /  0.7 °C 30.2in /  1023.9hPa Calm   3.1mph /  5.0km/h 98% 0in /  0.0mm
06:13 33.8 °F /  1.0 °C 33.3 °F /  0.7 °C 30.2in /  1023.9hPa Calm     98% 0in /  0.0mm
06:18 33.6 °F /  0.9 °C 33.1 °F /  0.6 °C 30.2in /  1023.9hPa Calm   3.4mph /  5.5km/h 98% 0in /  0.0mm
06:23 33.6 °F /  0.9 °C 33.1 °F /  0.6 °C 30.3in /  1024.9hPa Calm   3.4mph /  5.5km/h 98% 0in /  0.0mm
06:28 33.6 °F /  0.9 °C 33.1 °F /  0.6 °C 30.3in /  1024.9hPa Calm   3.4mph /  5.5km/h 98% 0in /  0.0mm
06:33 33.6 °F /  0.9 °C 33.1 °F /  0.6 °C 30.3in /  1024.9hPa Calm   3.4mph /  5.5km/h 98% 0in /  0.0mm
06:38 33.6 °F /  0.9 °C 33.1 °F /  0.6 °C 30.2in /  1023.9hPa Calm   3.4mph /  5.5km/h 98% 0in /  0.0mm
06:43 33.4 °F /  0.8 °C 32.9 °F /  0.5 °C 30.2in /  1023.9hPa Calm     98% 0in /  0.0mm
06:48 33.4 °F /  0.8 °C 32.9 °F /  0.5 °C 30.2in /  1023.9hPa Calm     98% 0in /  0.0mm
06:53 33.4 °F /  0.8 °C 32.9 °F /  0.5 °C 30.3in /  1024.9hPa Calm     98% 0in /  0.0mm
06:58 33.4 °F /  0.8 °C 32.9 °F /  0.5 °C 30.3in /  1024.9hPa Calm     98% 0in /  0.0mm
07:03 33.4 °F /  0.8 °C 32.9 °F /  0.5 °C 30.3in /  1024.9hPa Calm     98% 0in /  0.0mm
07:08 33.4 °F /  0.8 °C 32.9 °F /  0.5 °C 30.3in /  1024.9hPa Calm     98% 0in /  0.0mm
07:13 33.4 °F /  0.8 °C 32.9 °F /  0.5 °C 30.3in /  1024.9hPa Calm     98% 0in /  0.0mm
07:18 33.4 °F /  0.8 °C 32.9 °F /  0.5 °C 30.3in /  1024.9hPa Calm     98% 0in /  0.0mm
07:23 33.4 °F /  0.8 °C 32.9 °F /  0.5 °C 30.3in /  1024.9hPa Calm   2.5mph /  4.0km/h 98% 0in /  0.0mm
07:28 33.4 °F /  0.8 °C 32.9 °F /  0.5 °C 30.3in /  1024.9hPa West 2.7mph /  4.3km/h 3.1mph /  5.0km/h 98% 0in /  0.0mm
07:33 33.4 °F /  0.8 °C 32.9 °F /  0.5 °C 30.3in /  1024.9hPa WSW 2.9mph /  4.7km/h 3.4mph /  5.5km/h 98% 0in /  0.0mm
07:38 33.4 °F /  0.8 °C 32.9 °F /  0.5 °C 30.3in /  1024.9hPa Calm   3.4mph /  5.5km/h 98% 0in /  0.0mm
07:43 33.4 °F /  0.8 °C 32.9 °F /  0.5 °C 30.3in /  1024.9hPa West 1.3mph /  2.1km/h 3.6mph /  5.8km/h 98% 0in /  0.0mm
07:48 33.4 °F /  0.8 °C 32.9 °F /  0.5 °C 30.3in /  1024.9hPa WNW 2.5mph /  4.0km/h 3.6mph /  5.8km/h 98% 0in /  0.0mm
07:53 33.4 °F /  0.8 °C 32.9 °F /  0.5 °C 30.3in /  1024.9hPa Calm   4.3mph /  6.9km/h 98% 0in /  0.0mm
07:58 33.4 °F /  0.8 °C 32.9 °F /  0.5 °C 30.3in /  1024.9hPa WNW 2mph /  3.2km/h 4.3mph /  6.9km/h 98% 0in /  0.0mm
08:03 33.6 °F /  0.9 °C 33.1 °F /  0.6 °C 30.3in /  1024.9hPa Calm   4.3mph /  6.9km/h 98% 0in /  0.0mm
08:08 33.6 °F /  0.9 °C 33.1 °F /  0.6 °C 30.3in /  1024.9hPa West 1.3mph /  2.1km/h 4mph /  6.4km/h 98% 0in /  0.0mm
08:13 33.6 °F /  0.9 °C 33.1 °F /  0.6 °C 30.3in /  1024.9hPa West 0.9mph /  1.4km/h 4.3mph /  6.9km/h 98% 0in /  0.0mm
08:18 33.8 °F /  1.0 °C 33.3 °F /  0.7 °C 30.3in /  1024.9hPa Calm   4.3mph /  6.9km/h 98% 0in /  0.0mm
08:23 33.8 °F /  1.0 °C 33.3 °F /  0.7 °C 30.3in /  1024.9hPa Calm   3.4mph /  5.5km/h 98% 0in /  0.0mm
08:28 33.8 °F /  1.0 °C 33.3 °F /  0.7 °C 30.3in /  1024.9hPa Calm   3.4mph /  5.5km/h 98% 0in /  0.0mm
08:33 33.8 °F /  1.0 °C 33.3 °F /  0.7 °C 30.3in /  1024.9hPa Calm   2.5mph /  4.0km/h 98% 0in /  0.0mm
08:38 34 °F /  1.1 °C 33.4 °F /  0.8 °C 30.3in /  1024.9hPa Calm     98% 0in /  0.0mm
08:43 34 °F /  1.1 °C 33.4 °F /  0.8 °C 30.3in /  1024.9hPa Calm   0.9mph /  1.4km/h 98% 0in /  0.0mm
08:48 34 °F /  1.1 °C 33.4 °F /  0.8 °C 30.3in /  1024.9hPa Calm   2.5mph /  4.0km/h 98% 0in /  0.0mm
08:53 34 °F /  1.1 °C 33.4 °F /  0.8 °C 30.3in /  1024.9hPa Calm   2.7mph /  4.3km/h 98% 0in /  0.0mm
08:58 34 °F /  1.1 °C 33.4 °F /  0.8 °C 30.3in /  1024.9hPa Calm   2.7mph /  4.3km/h 98% 0in /  0.0mm
09:03 34.2 °F /  1.2 °C 33.6 °F /  0.9 °C 30.3in /  1024.9hPa Calm     98% 0in /  0.0mm
09:08 34.2 °F /  1.2 °C 33.6 °F /  0.9 °C 30.3in /  1024.9hPa Calm   1.6mph /  2.6km/h 98% 0in /  0.0mm
09:13 34.2 °F /  1.2 °C 33.6 °F /  0.9 °C 30.3in /  1024.9hPa Calm   1.6mph /  2.6km/h 98% 0in /  0.0mm
09:18 34.2 °F /  1.2 °C 33.6 °F /  0.9 °C 30.3in /  1024.9hPa Calm     98% 0in /  0.0mm
09:23 34.3 °F /  1.3 °C 33.8 °F /  1.0 °C 30.3in /  1024.9hPa Calm   0.9mph /  1.4km/h 98% 0in /  0.0mm
09:28 34.3 °F /  1.3 °C 33.8 °F /  1.0 °C 30.3in /  1024.9hPa Calm   0.9mph /  1.4km/h 98% 0in /  0.0mm
09:33 34.3 °F /  1.3 °C 33.8 °F /  1.0 °C 30.3in /  1024.9hPa Calm     98% 0in /  0.0mm
09:38 34.3 °F /  1.3 °C 33.8 °F /  1.0 °C 30.3in /  1024.9hPa Calm     98% 0in /  0.0mm
09:43 34.3 °F /  1.3 °C 33.8 °F /  1.0 °C 30.3in /  1024.9hPa Calm   1.3mph /  2.1km/h 98% 0in /  0.0mm
09:48 34.5 °F /  1.4 °C 34 °F /  1.1 °C 30.3in /  1024.9hPa Calm   1.3mph /  2.1km/h 98% 0in /  0.0mm
09:53 34.5 °F /  1.4 °C 34 °F /  1.1 °C 30.3in /  1024.9hPa Calm   2.5mph /  4.0km/h 98% 0in /  0.0mm
09:58 34.5 °F /  1.4 °C 34 °F /  1.1 °C 30.3in /  1024.9hPa Calm   2.5mph /  4.0km/h 98% 0in /  0.0mm
10:03 34.5 °F /  1.4 °C 34 °F /  1.1 °C 30.3in /  1024.9hPa Calm     98% 0in /  0.0mm
10:08 34.5 °F /  1.4 °C 34 °F /  1.1 °C 30.3in /  1026.0hPa SW 1.1mph /  1.8km/h 2.5mph /  4.0km/h 98% 0in /  0.0mm
10:13 34.5 °F /  1.4 °C 34.2 °F /  1.2 °C 30.3in /  1026.0hPa WNW 1.3mph /  2.1km/h 3.4mph /  5.5km/h 98% 0in /  0.0mm
10:18 34.5 °F /  1.4 °C 34.2 °F /  1.2 °C 30.3in /  1026.0hPa Calm   3.8mph /  6.1km/h 98% 0in /  0.0mm
10:23 34.9 °F /  1.6 °C 34.3 °F /  1.3 °C 30.3in /  1026.0hPa Calm   3.8mph /  6.1km/h 98% 0in /  0.0mm
10:28 34.9 °F /  1.6 °C 34.3 °F /  1.3 °C 30.3in /  1026.0hPa NW 1.3mph /  2.1km/h 3.4mph /  5.5km/h 98% 0in /  0.0mm
10:33 35.1 °F /  1.7 °C 34.5 °F /  1.4 °C 30.3in /  1026.0hPa West 3.1mph /  5.0km/h 3.4mph /  5.5km/h 98% 0in /  0.0mm
10:38 35.1 °F /  1.7 °C 34.5 °F /  1.4 °C 30.3in /  1026.0hPa Calm   3.4mph /  5.5km/h 98% 0in /  0.0mm
10:43 35.2 °F /  1.8 °C 34.7 °F /  1.5 °C 30.3in /  1026.0hPa Calm   3.1mph /  5.0km/h 98% 0in /  0.0mm
10:48 35.4 °F /  1.9 °C 34.9 °F /  1.6 °C 30.3in /  1026.0hPa Calm   2.7mph /  4.3km/h 98% 0in /  0.0mm
10:53 35.4 °F /  1.9 °C 34.9 °F /  1.6 °C 30.3in /  1026.0hPa Calm   2.7mph /  4.3km/h 98% 0in /  0.0mm
10:58 35.4 °F /  1.9 °C 35.1 °F /  1.7 °C 30.3in /  1026.0hPa Calm   0.9mph /  1.4km/h 98% 0in /  0.0mm
11:03 35.8 °F /  2.1 °C 35.2 °F /  1.8 °C 30.3in /  1026.0hPa West 2mph /  3.2km/h 3.6mph /  5.8km/h 98% 0in /  0.0mm
11:08 35.8 °F /  2.1 °C 35.2 °F /  1.8 °C 30.3in /  1026.0hPa WSW 1.3mph /  2.1km/h 4mph /  6.4km/h 98% 0in /  0.0mm
11:13 35.8 °F /  2.1 °C 35.2 °F /  1.8 °C 30.3in /  1026.0hPa Calm   4mph /  6.4km/h 98% 0in /  0.0mm
11:18 35.8 °F /  2.1 °C 35.2 °F /  1.8 °C 30.3in /  1026.0hPa WNW 0.9mph /  1.4km/h 0.9mph /  1.4km/h 98% 0in /  0.0mm
11:23 35.4 °F /  1.9 °C 35.1 °F /  1.7 °C 30.3in /  1026.0hPa Calm   2.5mph /  4.0km/h 98% 0in /  0.0mm
11:28 35.8 °F /  2.1 °C 35.2 °F /  1.8 °C 30.3in /  1026.0hPa Calm   2.7mph /  4.3km/h 98% 0in /  0.0mm
11:33 35.8 °F /  2.1 °C 35.2 °F /  1.8 °C 30.3in /  1026.0hPa Calm   2.7mph /  4.3km/h 98% 0in /  0.0mm
11:38 35.8 °F /  2.1 °C 35.2 °F /  1.8 °C 30.3in /  1026.0hPa Calm   2.5mph /  4.0km/h 98% 0in /  0.0mm
11:43 35.8 °F /  2.1 °C 35.2 °F /  1.8 °C 30.3in /  1026.0hPa Calm   2.7mph /  4.3km/h 98% 0in /  0.0mm
11:48 36 °F /  2.2 °C 35.4 °F /  1.9 °C 30.3in /  1026.0hPa Calm   2.7mph /  4.3km/h 98% 0in /  0.0mm
11:53 36.1 °F /  2.3 °C 35.4 °F /  1.9 °C 30.3in /  1026.0hPa Calm   1.1mph /  1.8km/h 98% 0in /  0.0mm
11:58 36.1 °F /  2.3 °C 35.4 °F /  1.9 °C 30.3in /  1026.0hPa Calm   0.9mph /  1.4km/h 98% 0in /  0.0mm
12:03 36 °F /  2.2 °C 35.4 °F /  1.9 °C 30.3in /  1026.0hPa Calm   0.9mph /  1.4km/h 98% 0in /  0.0mm
12:08 36.1 °F /  2.3 °C 35.4 °F /  1.9 °C 30.3in /  1026.0hPa Calm   2.5mph /  4.0km/h 98% 0in /  0.0mm
12:13 36.1 °F /  2.3 °C 35.4 °F /  1.9 °C 30.3in /  1026.0hPa Calm   2.5mph /  4.0km/h 98% 0in /  0.0mm
12:18 36.1 °F /  2.3 °C 35.4 °F /  1.9 °C 30.3in /  1026.0hPa Calm   1.1mph /  1.8km/h 98% 0in /  0.0mm
12:23 36.1 °F /  2.3 °C 35.8 °F /  2.1 °C 30.3in /  1026.0hPa West 3.6mph /  5.8km/h 4.3mph /  6.9km/h 98% 0in /  0.0mm
12:28 36.1 °F /  2.3 °C 35.8 °F /  2.1 °C 30.3in /  1026.0hPa West 1.3mph /  2.1km/h 4.5mph /  7.2km/h 98% 0in /  0.0mm
12:33 36.7 °F /  2.6 °C 36.1 °F /  2.3 °C 30.3in /  1026.0hPa West 2.5mph /  4.0km/h 4.5mph /  7.2km/h 98% 0in /  0.0mm
12:38 36.7 °F /  2.6 °C 36.1 °F /  2.3 °C 30.3in /  1026.0hPa WNW 2.2mph /  3.5km/h 3.6mph /  5.8km/h 98% 0in /  0.0mm
12:43 36.9 °F /  2.7 °C 36.3 °F /  2.4 °C 30.3in /  1026.0hPa Calm   3.4mph /  5.5km/h 98% 0in /  0.0mm
12:48 36.9 °F /  2.7 °C 36.3 °F /  2.4 °C 30.3in /  1026.0hPa WNW 2.2mph /  3.5km/h 4.3mph /  6.9km/h 98% 0in /  0.0mm
12:53 36.9 °F /  2.7 °C 36.3 °F /  2.4 °C 30.3in /  1026.0hPa WNW 2.7mph /  4.3km/h 4.5mph /  7.2km/h 98% 0in /  0.0mm
12:58 36.9 °F /  2.7 °C 36.3 °F /  2.4 °C 30.3in /  1026.0hPa WNW 2.2mph /  3.5km/h 4.5mph /  7.2km/h 98% 0in /  0.0mm
13:03 36.9 °F /  2.7 °C 36.3 °F /  2.4 °C 30.3in /  1026.0hPa Calm   3.8mph /  6.1km/h 98% 0in /  0.0mm
13:08 36.9 °F /  2.7 °C 36.3 °F /  2.4 °C 30.3in /  1026.0hPa WNW 2.7mph /  4.3km/h 4.3mph /  6.9km/h 98% 0in /  0.0mm
13:13 37 °F /  2.8 °C 36.7 °F /  2.6 °C 30.3in /  1026.0hPa Calm   4.3mph /  6.9km/h 98% 0in /  0.0mm
13:18 37.2 °F /  2.9 °C 36.9 °F /  2.7 °C 30.3in /  1026.0hPa Calm   2.9mph /  4.7km/h 98% 0in /  0.0mm
13:23 37.6 °F /  3.1 °C 37 °F /  2.8 °C 30.3in /  1026.0hPa Calm   2mph /  3.2km/h 98% 0in /  0.0mm
13:28 37.6 °F /  3.1 °C 37 °F /  2.8 °C 30.3in /  1026.0hPa West 1.3mph /  2.1km/h 2mph /  3.2km/h 98% 0in /  0.0mm
13:33 37.8 °F /  3.2 °C 37.2 °F /  2.9 °C 30.3in /  1026.0hPa Calm   1.3mph /  2.1km/h 98% 0in /  0.0mm
13:39 37.6 °F /  3.1 °C 37 °F /  2.8 °C 30.3in /  1027.0hPa Calm     98% 0in /  0.0mm
13:44 37.6 °F /  3.1 °C 37 °F /  2.8 °C 30.3in /  1027.0hPa Calm   2.7mph /  4.3km/h 98% 0in /  0.0mm
13:49 37.8 °F /  3.2 °C 37.2 °F /  2.9 °C 30.3in /  1027.0hPa Calm   2.7mph /  4.3km/h 98% 0in /  0.0mm
13:54 37.8 °F /  3.2 °C 37.2 °F /  2.9 °C 30.3in /  1027.0hPa Calm     98% 0in /  0.0mm
13:59 37.8 °F /  3.2 °C 37.2 °F /  2.9 °C 30.3in /  1027.0hPa Calm   2.5mph /  4.0km/h 98% 0in /  0.0mm
14:04 37.9 °F /  3.3 °C 37.6 °F /  3.1 °C 30.3in /  1027.0hPa Calm   2.5mph /  4.0km/h 98% 0in /  0.0mm
14:09 38.1 °F /  3.4 °C 37.8 °F /  3.2 °C 30.3in /  1026.0hPa WNW 1.1mph /  1.8km/h 2.5mph /  4.0km/h 98% 0in /  0.0mm
14:14 38.5 °F /  3.6 °C 37.8 °F /  3.2 °C 30.3in /  1026.0hPa Calm   2.5mph /  4.0km/h 98% 0in /  0.0mm
14:24 38.5 °F /  3.6 °C 37.9 °F /  3.3 °C 30.3in /  1027.0hPa Calm     98% 0in /  0.0mm
14:29 38.5 °F /  3.6 °C 37.9 °F /  3.3 °C 30.3in /  1027.0hPa North 2.7mph /  4.3km/h 2.7mph /  4.3km/h 98% 0in /  0.0mm
14:34 38.7 °F /  3.7 °C 38.1 °F /  3.4 °C 30.3in /  1027.0hPa North 1.1mph /  1.8km/h 2.7mph /  4.3km/h 98% 0in /  0.0mm
14:39 38.7 °F /  3.7 °C 38.1 °F /  3.4 °C 30.3in /  1026.0hPa Calm   2.7mph /  4.3km/h 98% 0in /  0.0mm
14:44 38.7 °F /  3.7 °C 38.1 °F /  3.4 °C 30.3in /  1026.0hPa Calm   2.9mph /  4.7km/h 98% 0in /  0.0mm
14:49 38.7 °F /  3.7 °C 38.1 °F /  3.4 °C 30.3in /  1026.0hPa Calm   2.9mph /  4.7km/h 98% 0in /  0.0mm
14:54 38.7 °F /  3.7 °C 37.9 °F /  3.3 °C 30.3in /  1027.0hPa North 2.7mph /  4.3km/h 4mph /  6.4km/h 97% 0in /  0.0mm
14:59 38.7 °F /  3.7 °C 37.9 °F /  3.3 °C 30.3in /  1027.0hPa Calm   4mph /  6.4km/h 97% 0in /  0.0mm
15:04 38.7 °F /  3.7 °C 37.9 °F /  3.3 °C 30.3in /  1027.0hPa North 3.8mph /  6.1km/h 3.8mph /  6.1km/h 97% 0in /  0.0mm
15:09 38.7 °F /  3.7 °C 37.9 °F /  3.3 °C 30.3in /  1027.0hPa Calm   3.8mph /  6.1km/h 97% 0in /  0.0mm
15:14 38.7 °F /  3.7 °C 37.9 °F /  3.3 °C 30.3in /  1027.0hPa NNE 3.4mph /  5.5km/h 3.4mph /  5.5km/h 97% 0in /  0.0mm
15:19 38.7 °F /  3.7 °C 37.9 °F /  3.3 °C 30.3in /  1027.0hPa Calm   3.4mph /  5.5km/h 97% 0in /  0.0mm
15:24 38.7 °F /  3.7 °C 37.9 °F /  3.3 °C 30.3in /  1027.0hPa NE 1.1mph /  1.8km/h 3.4mph /  5.5km/h 97% 0in /  0.0mm
15:29 38.8 °F /  3.8 °C 38.1 °F /  3.4 °C 30.3in /  1027.0hPa Calm   2.7mph /  4.3km/h 97% 0in /  0.0mm
15:34 39 °F /  3.9 °C 38.3 °F /  3.5 °C 30.3in /  1027.0hPa Calm   2.7mph /  4.3km/h 97% 0in /  0.0mm
15:39 39 °F /  3.9 °C 38.3 °F /  3.5 °C 30.3in /  1027.0hPa North 4mph /  6.4km/h 4mph /  6.4km/h 97% 0in /  0.0mm
15:44 39 °F /  3.9 °C 38.3 °F /  3.5 °C 30.3in /  1027.0hPa Calm   4mph /  6.4km/h 97% 0in /  0.0mm
15:49 39 °F /  3.9 °C 38.3 °F /  3.5 °C 30.3in /  1027.0hPa NNE 2.7mph /  4.3km/h 3.1mph /  5.0km/h 97% 0in /  0.0mm
15:54 39 °F /  3.9 °C 38.3 °F /  3.5 °C 30.3in /  1027.0hPa NE 0.9mph /  1.4km/h 3.4mph /  5.5km/h 97% 0in /  0.0mm
15:59 38.8 °F /  3.8 °C 38.1 °F /  3.4 °C 30.3in /  1027.0hPa Calm   3.4mph /  5.5km/h 97% 0in /  0.0mm
16:04 38.8 °F /  3.8 °C 38.1 °F /  3.4 °C 30.3in /  1027.0hPa NNE 2.9mph /  4.7km/h 3.1mph /  5.0km/h 97% 0in /  0.0mm
16:09 38.8 °F /  3.8 °C 38.1 °F /  3.4 °C 30.3in /  1027.0hPa NE 3.8mph /  6.1km/h 4.5mph /  7.2km/h 97% 0in /  0.0mm
16:14 38.8 °F /  3.8 °C 38.1 °F /  3.4 °C 30.3in /  1027.0hPa North 3.4mph /  5.5km/h 4.7mph /  7.6km/h 97% 0in /  0.0mm
16:19 38.8 °F /  3.8 °C 38.1 °F /  3.4 °C 30.3in /  1027.0hPa NNE 2.5mph /  4.0km/h 4.7mph /  7.6km/h 97% 0in /  0.0mm
16:24 38.8 °F /  3.8 °C 38.1 °F /  3.4 °C 30.3in /  1026.0hPa NE 2.7mph /  4.3km/h 4mph /  6.4km/h 97% 0in /  0.0mm
16:29 38.8 °F /  3.8 °C 38.1 °F /  3.4 °C 30.3in /  1026.0hPa NNE 3.4mph /  5.5km/h 4mph /  6.4km/h 97% 0in /  0.0mm
16:34 38.7 °F /  3.7 °C 37.9 °F /  3.3 °C 30.3in /  1026.0hPa NE 3.4mph /  5.5km/h 4mph /  6.4km/h 97% 0in /  0.0mm
16:39 38.7 °F /  3.7 °C 37.9 °F /  3.3 °C 30.3in /  1027.0hPa NNE 3.8mph /  6.1km/h 4.9mph /  7.9km/h 97% 0in /  0.0mm
16:44 38.7 °F /  3.7 °C 37.9 °F /  3.3 °C 30.3in /  1027.0hPa NE 3.6mph /  5.8km/h 4.9mph /  7.9km/h 97% 0in /  0.0mm
16:49 38.7 °F /  3.7 °C 37.9 °F /  3.3 °C 30.3in /  1027.0hPa Calm   3.8mph /  6.1km/h 97% 0in /  0.0mm
16:54 38.7 °F /  3.7 °C 37.9 °F /  3.3 °C 30.3in /  1027.0hPa Calm   3.4mph /  5.5km/h 97% 0in /  0.0mm
17:00 38.5 °F /  3.6 °C 37.8 °F /  3.2 °C 30.3in /  1027.0hPa East 0.9mph /  1.4km/h 3.1mph /  5.0km/h 97% 0in /  0.0mm
17:06 38.5 °F /  3.6 °C 37.8 °F /  3.2 °C 30.3in /  1027.0hPa East 1.1mph /  1.8km/h 2.7mph /  4.3km/h 97% 0in /  0.0mm
17:15 38.5 °F /  3.6 °C 37.6 °F /  3.1 °C 30.3in /  1027.0hPa East 2.7mph /  4.3km/h 3.4mph /  5.5km/h 97% 0in /  0.0mm
17:19 38.1 °F /  3.4 °C 37.4 °F /  3.0 °C 30.3in /  1027.0hPa SE 1.6mph /  2.6km/h 3.1mph /  5.0km/h 97% 0in /  0.0mm
17:31 37.6 °F /  3.1 °C 36.9 °F /  2.7 °C 30.3in /  1027.0hPa Calm   1.3mph /  2.1km/h 97% 0in /  0.0mm
17:35 37.6 °F /  3.1 °C 36.7 °F /  2.6 °C 30.3in /  1027.0hPa Calm     97% 0in /  0.0mm
17:42 37.2 °F /  2.9 °C 36.5 °F /  2.5 °C 30.3in /  1026.0hPa Calm     97% 0in /  0.0mm
17:44 37 °F /  2.8 °C 36.3 °F /  2.4 °C 30.3in /  1026.0hPa Calm     97% 0in /  0.0mm
17:47 36.9 °F /  2.7 °C 36.1 °F /  2.3 °C 30.3in /  1026.0hPa Calm     97% 0in /  0.0mm
17:48 36.9 °F /  2.7 °C 36.1 °F /  2.3 °C 30.3in /  1026.0hPa Calm     97% 0in /  0.0mm
17:56 36.9 °F /  2.7 °C 36 °F /  2.2 °C 30.3in /  1027.0hPa Calm     97% 0in /  0.0mm
17:58 36.9 °F /  2.7 °C 36 °F /  2.2 °C 30.3in /  1027.0hPa Calm     97% 0in /  0.0mm
18:20 35.4 °F /  1.9 °C 34.9 °F /  1.6 °C 30.3in /  1027.0hPa Calm     97% 0in /  0.0mm
18:21 35.4 °F /  1.9 °C 34.5 °F /  1.4 °C 30.3in /  1027.0hPa Calm     97% 0in /  0.0mm
18:32 34.9 °F /  1.6 °C 34.2 °F /  1.2 °C 30.4in /  1028.0hPa Calm     97% 0in /  0.0mm
18:37 34.5 °F /  1.4 °C 33.6 °F /  0.9 °C 30.4in /  1028.0hPa Calm     97% 0in /  0.0mm
18:45 34 °F /  1.1 °C 33.3 °F /  0.7 °C 30.4in /  1028.0hPa Calm     97% 0in /  0.0mm
18:51 33.8 °F /  1.0 °C 33.1 °F /  0.6 °C 30.4in /  1028.0hPa Calm     97% 0in /  0.0mm
18:56 33.8 °F /  1.0 °C 33.1 °F /  0.6 °C 30.4in /  1028.0hPa Calm     97% 0in /  0.0mm
18:57 33.8 °F /  1.0 °C 33.3 °F /  0.7 °C 30.4in /  1028.0hPa Calm     98% 0in /  0.0mm
19:01 34 °F /  1.1 °C 33.4 °F /  0.8 °C 30.4in /  1028.0hPa Calm     98% 0in /  0.0mm
19:10 33.8 °F /  1.0 °C 33.3 °F /  0.7 °C 30.4in /  1028.0hPa Calm     98% 0in /  0.0mm
19:14 33.6 °F /  0.9 °C 33.1 °F /  0.6 °C 30.4in /  1028.0hPa Calm     98% 0in /  0.0mm
19:19 33.4 °F /  0.8 °C 32.9 °F /  0.5 °C 30.4in /  1028.0hPa Calm     98% 0in /  0.0mm
19:30 33.3 °F /  0.7 °C 32.7 °F /  0.4 °C 30.4in /  1029.0hPa Calm     98% 0in /  0.0mm
19:36 33.1 °F /  0.6 °C 32.5 °F /  0.3 °C 30.4in /  1029.0hPa Calm     98% 0in /  0.0mm
19:38 33.1 °F /  0.6 °C 32.5 °F /  0.3 °C 30.4in /  1029.0hPa Calm     98% 0in /  0.0mm
19:42 33.1 °F /  0.6 °C 32.5 °F /  0.3 °C 30.4in /  1029.0hPa Calm     98% 0in /  0.0mm
19:47 32.9 °F /  0.5 °C 32.4 °F /  0.2 °C 30.4in /  1029.0hPa Calm     98% 0in /  0.0mm
19:50 32.9 °F /  0.5 °C 32.4 °F /  0.2 °C 30.4in /  1029.0hPa Calm     98% 0in /  0.0mm
19:58 33.1 °F /  0.6 °C 32.5 °F /  0.3 °C 30.4in /  1029.0hPa Calm     98% 0in /  0.0mm
20:08 33.3 °F /  0.7 °C 32.7 °F /  0.4 °C 30.4in /  1029.0hPa Calm     98% 0in /  0.0mm
20:19 33.8 °F /  1.0 °C 33.3 °F /  0.7 °C 30.4in /  1029.0hPa Calm   2mph /  3.2km/h 98% 0in /  0.0mm
20:20 33.8 °F /  1.0 °C 33.3 °F /  0.7 °C 30.4in /  1029.0hPa Calm   2mph /  3.2km/h 98% 0in /  0.0mm
21:06 34 °F /  1.1 °C 33.4 °F /  0.8 °C 30.4in /  1029.0hPa ESE 2.5mph /  4.0km/h 6.9mph /  11.1km/h 98% 0in /  0.0mm
21:07 34 °F /  1.1 °C 33.4 °F /  0.8 °C 30.4in /  1030.0hPa ESE 3.4mph /  5.5km/h 6.3mph /  10.1km/h 98% 0in /  0.0mm
21:13 33.8 °F /  1.0 °C 33.3 °F /  0.7 °C 30.4in /  1030.0hPa NE 3.8mph /  6.1km/h 6.3mph /  10.1km/h 98% 0in /  0.0mm
21:16 33.8 °F /  1.0 °C 33.3 °F /  0.7 °C 30.4in /  1030.0hPa East 4.3mph /  6.9km/h 6.3mph /  10.1km/h 98% 0in /  0.0mm
21:19 33.6 °F /  0.9 °C 33.1 °F /  0.6 °C 30.4in /  1030.0hPa ENE 3.1mph /  5.0km/h 6mph /  9.7km/h 98% 0in /  0.0mm
21:25 33.4 °F /  0.8 °C 32.9 °F /  0.5 °C 30.4in /  1030.0hPa East 2.7mph /  4.3km/h 4.3mph /  6.9km/h 98% 0in /  0.0mm
21:26 33.3 °F /  0.7 °C 32.7 °F /  0.4 °C 30.4in /  1030.0hPa ENE 3.4mph /  5.5km/h 4mph /  6.4km/h 98% 0in /  0.0mm
21:34 33.1 °F /  0.6 °C 32.5 °F /  0.3 °C 30.4in /  1030.0hPa East 1.1mph /  1.8km/h 4mph /  6.4km/h 98% 0in /  0.0mm
21:42 32.7 °F /  0.4 °C 32.2 °F /  0.1 °C 30.4in /  1030.0hPa NE 3.1mph /  5.0km/h 3.8mph /  6.1km/h 98% 0in /  0.0mm
21:47 32.5 °F /  0.3 °C 32 °F /  0.0 °C 30.4in /  1030.0hPa NE 3.6mph /  5.8km/h 3.8mph /  6.1km/h 98% 0in /  0.0mm
21:49 32.5 °F /  0.3 °C 32 °F /  0.0 °C 30.4in /  1030.0hPa ENE 3.8mph /  6.1km/h 4mph /  6.4km/h 98% 0in /  0.0mm
21:54 32.5 °F /  0.3 °C 32 °F /  0.0 °C 30.4in /  1030.0hPa ENE 3.1mph /  5.0km/h 4mph /  6.4km/h 98% 0in /  0.0mm
21:56 32.4 °F /  0.2 °C 31.8 °F /  -0.1 °C 30.4in /  1030.0hPa ENE 2.9mph /  4.7km/h 4mph /  6.4km/h 98% 0in /  0.0mm
21:57 32.4 °F /  0.2 °C 31.8 °F /  -0.1 °C 30.4in /  1030.0hPa ENE 2.7mph /  4.3km/h 4mph /  6.4km/h 98% 0in /  0.0mm
22:03 32.2 °F /  0.1 °C 31.6 °F /  -0.2 °C 30.4in /  1030.0hPa ENE 3.1mph /  5.0km/h 3.6mph /  5.8km/h 98% 0in /  0.0mm
22:08 32 °F /  0.0 °C 31.5 °F /  -0.3 °C 30.4in /  1031.0hPa ENE 2.5mph /  4.0km/h 3.6mph /  5.8km/h 98% 0in /  0.0mm
22:09 32 °F /  0.0 °C 31.5 °F /  -0.3 °C 30.4in /  1031.0hPa ENE 2.5mph /  4.0km/h 3.6mph /  5.8km/h 98% 0in /  0.0mm
22:13 31.8 °F /  -0.1 °C 31.3 °F /  -0.4 °C 30.4in /  1031.0hPa NE 3.4mph /  5.5km/h 3.6mph /  5.8km/h 98% 0in /  0.0mm
22:18 31.8 °F /  -0.1 °C 31.3 °F /  -0.4 °C 30.4in /  1031.0hPa NE 2.9mph /  4.7km/h 3.8mph /  6.1km/h 98% 0in /  0.0mm
22:21 31.8 °F /  -0.1 °C 31.3 °F /  -0.4 °C 30.4in /  1031.0hPa NE 3.1mph /  5.0km/h 3.8mph /  6.1km/h 98% 0in /  0.0mm
22:28 31.5 °F /  -0.3 °C 30.9 °F /  -0.6 °C 30.4in /  1031.0hPa NE 2.7mph /  4.3km/h 3.6mph /  5.8km/h 98% 0in /  0.0mm
22:29 31.5 °F /  -0.3 °C 30.9 °F /  -0.6 °C 30.4in /  1031.0hPa NE 2.9mph /  4.7km/h 3.1mph /  5.0km/h 98% 0in /  0.0mm
22:30 31.5 °F /  -0.3 °C 30.9 °F /  -0.6 °C 30.4in /  1031.0hPa NE 2.7mph /  4.3km/h 3.1mph /  5.0km/h 98% 0in /  0.0mm
22:32 31.5 °F /  -0.3 °C 30.9 °F /  -0.6 °C 30.4in /  1031.0hPa NE 2.5mph /  4.0km/h 3.1mph /  5.0km/h 98% 0in /  0.0mm
22:33 31.5 °F /  -0.3 °C 30.9 °F /  -0.6 °C 30.4in /  1031.0hPa NE 2.5mph /  4.0km/h 3.1mph /  5.0km/h 98% 0in /  0.0mm
22:37 31.5 °F /  -0.3 °C 30.9 °F /  -0.6 °C 30.5in /  1032.1hPa ENE 2.5mph /  4.0km/h 3.1mph /  5.0km/h 98% 0in /  0.0mm
22:40 31.5 °F /  -0.3 °C 30.9 °F /  -0.6 °C 30.5in /  1032.1hPa ENE 2.7mph /  4.3km/h 3.4mph /  5.5km/h 98% 0in /  0.0mm
22:45 31.6 °F /  -0.2 °C 31.1 °F /  -0.5 °C 30.5in /  1032.1hPa NE 2.5mph /  4.0km/h 3.4mph /  5.5km/h 98% 0in /  0.0mm
22:51 31.8 °F /  -0.1 °C 31.3 °F /  -0.4 °C 30.5in /  1032.1hPa East 2.5mph /  4.0km/h 3.6mph /  5.8km/h 98% 0in /  0.0mm
22:56 31.8 °F /  -0.1 °C 31.3 °F /  -0.4 °C 30.4in /  1031.0hPa NE 3.1mph /  5.0km/h 3.6mph /  5.8km/h 98% 0in /  0.0mm
23:00 32 °F /  0.0 °C 31.5 °F /  -0.3 °C 30.4in /  1031.0hPa ENE 4mph /  6.4km/h 4.3mph /  6.9km/h 98% 0in /  0.0mm
23:06 32 °F /  0.0 °C 31.5 °F /  -0.3 °C 30.4in /  1031.0hPa ENE 4.3mph /  6.9km/h 4.3mph /  6.9km/h 98% 0in /  0.0mm
23:11 32 °F /  0.0 °C 31.5 °F /  -0.3 °C 30.4in /  1031.0hPa NE 3.1mph /  5.0km/h 4.3mph /  6.9km/h 98% 0in /  0.0mm
23:16 32 °F /  0.0 °C 31.5 °F /  -0.3 °C 30.4in /  1031.0hPa NE 2.9mph /  4.7km/h 3.6mph /  5.8km/h 98% 0in /  0.0mm
23:21 31.8 °F /  -0.1 °C 31.3 °F /  -0.4 °C 30.4in /  1031.0hPa NE 3.1mph /  5.0km/h 3.4mph /  5.5km/h 98% 0in /  0.0mm
23:26 31.8 °F /  -0.1 °C 31.3 °F /  -0.4 °C 30.4in /  1031.0hPa NE 3.4mph /  5.5km/h 3.6mph /  5.8km/h 98% 0in /  0.0mm
23:31 31.8 °F /  -0.1 °C 31.3 °F /  -0.4 °C 30.4in /  1031.0hPa ENE 2.9mph /  4.7km/h 3.6mph /  5.8km/h 98% 0in /  0.0mm
23:36 31.8 °F /  -0.1 °C 31.3 °F /  -0.4 °C 30.4in /  1031.0hPa ENE 2.9mph /  4.7km/h 3.6mph /  5.8km/h 98% 0in /  0.0mm
23:41 31.6 °F /  -0.2 °C 31.1 °F /  -0.5 °C 30.4in /  1030.0hPa NE 2.9mph /  4.7km/h 3.6mph /  5.8km/h 98% 0in /  0.0mm
23:46 31.5 °F /  -0.3 °C 30.9 °F /  -0.6 °C 30.4in /  1030.0hPa ENE 2.7mph /  4.3km/h 3.6mph /  5.8km/h 98% 0in /  0.0mm
23:51 31.3 °F /  -0.4 °C 30.7 °F /  -0.7 °C 30.4in /  1030.0hPa ENE 2.7mph /  4.3km/h 3.8mph /  6.1km/h 98% 0in /  0.0mm
23:56 31.1 °F /  -0.5 °C 30.6 °F /  -0.8 °C 30.4in /  1031.0hPa ENE 2.7mph /  4.3km/h 3.8mph /  6.1km/h 98% 0in /  0.0mm
Données Historique de Météo Turbie

Mise a jour : 21/05/2018 17:02:12
Généré par Cumulus 1.9.4 (1099)